sensor_id;sensor_type;location;lat;lon;timestamp;P1;durP1;ratioP1;P2;durP2;ratioP2
45344;SDS011;31078;48.304;11.896;2022-09-13T00:01:24;19.05;;;7.10;;
45344;SDS011;31078;48.304;11.896;2022-09-13T00:03:51;22.58;;;7.80;;
45344;SDS011;31078;48.304;11.896;2022-09-13T00:06:18;26.10;;;7.97;;
45344;SDS011;31078;48.304;11.896;2022-09-13T00:08:46;20.17;;;6.68;;
45344;SDS011;31078;48.304;11.896;2022-09-13T00:11:14;26.17;;;7.93;;
45344;SDS011;31078;48.304;11.896;2022-09-13T00:13:41;15.60;;;6.30;;
45344;SDS011;31078;48.304;11.896;2022-09-13T00:16:09;24.92;;;7.80;;
45344;SDS011;31078;48.304;11.896;2022-09-13T00:18:37;24.52;;;7.95;;
45344;SDS011;31078;48.304;11.896;2022-09-13T00:21:07;25.20;;;7.55;;
45344;SDS011;31078;48.304;11.896;2022-09-13T00:23:36;23.17;;;7.63;;
45344;SDS011;31078;48.304;11.896;2022-09-13T00:26:03;19.52;;;5.90;;
45344;SDS011;31078;48.304;11.896;2022-09-13T00:28:31;22.35;;;7.13;;
45344;SDS011;31078;48.304;11.896;2022-09-13T00:30:59;17.88;;;6.60;;
45344;SDS011;31078;48.304;11.896;2022-09-13T00:33:26;26.75;;;7.97;;
45344;SDS011;31078;48.304;11.896;2022-09-13T00:35:53;24.48;;;7.90;;
45344;SDS011;31078;48.304;11.896;2022-09-13T00:38:21;17.00;;;6.85;;
45344;SDS011;31078;48.304;11.896;2022-09-13T00:40:47;30.45;;;8.07;;
45344;SDS011;31078;48.304;11.896;2022-09-13T00:43:15;25.20;;;7.85;;
45344;SDS011;31078;48.304;11.896;2022-09-13T00:45:43;33.47;;;8.95;;
45344;SDS011;31078;48.304;11.896;2022-09-13T00:48:12;20.02;;;7.32;;
45344;SDS011;31078;48.304;11.896;2022-09-13T00:50:44;25.20;;;7.35;;
45344;SDS011;31078;48.304;11.896;2022-09-13T00:53:13;23.58;;;7.68;;
45344;SDS011;31078;48.304;11.896;2022-09-13T00:55:45;19.83;;;6.47;;
45344;SDS011;31078;48.304;11.896;2022-09-13T00:58:15;17.17;;;6.13;;
45344;SDS011;31078;48.304;11.896;2022-09-13T01:00:44;28.23;;;7.63;;
45344;SDS011;31078;48.304;11.896;2022-09-13T01:03:12;21.95;;;7.75;;
45344;SDS011;31078;48.304;11.896;2022-09-13T01:05:43;29.50;;;7.53;;
45344;SDS011;31078;48.304;11.896;2022-09-13T01:08:14;24.23;;;7.40;;
45344;SDS011;31078;48.304;11.896;2022-09-13T01:10:48;22.40;;;7.45;;
45344;SDS011;31078;48.304;11.896;2022-09-13T01:13:17;24.13;;;7.65;;
45344;SDS011;31078;48.304;11.896;2022-09-13T01:15:45;20.95;;;6.97;;
45344;SDS011;31078;48.304;11.896;2022-09-13T01:18:12;20.08;;;7.25;;
45344;SDS011;31078;48.304;11.896;2022-09-13T01:20:46;21.73;;;7.47;;
45344;SDS011;31078;48.304;11.896;2022-09-13T01:23:49;21.38;;;7.05;;
45344;SDS011;31078;48.304;11.896;2022-09-13T01:26:38;17.75;;;6.35;;
45344;SDS011;31078;48.304;11.896;2022-09-13T01:32:30;19.40;;;7.18;;
45344;SDS011;31078;48.304;11.896;2022-09-13T01:35:06;19.52;;;6.90;;
45344;SDS011;31078;48.304;11.896;2022-09-13T01:37:43;26.20;;;6.95;;
45344;SDS011;31078;48.304;11.896;2022-09-13T01:40:19;18.80;;;6.35;;
45344;SDS011;31078;48.304;11.896;2022-09-13T01:43:06;20.67;;;6.75;;
45344;SDS011;31078;48.304;11.896;2022-09-13T01:45:51;26.17;;;7.30;;
45344;SDS011;31078;48.304;11.896;2022-09-13T01:48:23;20.02;;;6.85;;
45344;SDS011;31078;48.304;11.896;2022-09-13T01:50:59;17.30;;;6.78;;
45344;SDS011;31078;48.304;11.896;2022-09-13T01:53:31;18.48;;;6.40;;
45344;SDS011;31078;48.304;11.896;2022-09-13T01:56:04;22.65;;;6.82;;
45344;SDS011;31078;48.304;11.896;2022-09-13T01:58:38;21.33;;;6.80;;
45344;SDS011;31078;48.304;11.896;2022-09-13T02:01:11;26.02;;;6.63;;
45344;SDS011;31078;48.304;11.896;2022-09-13T02:03:44;20.17;;;7.28;;
45344;SDS011;31078;48.304;11.896;2022-09-13T02:06:20;22.80;;;7.20;;
45344;SDS011;31078;48.304;11.896;2022-09-13T02:08:52;24.17;;;7.80;;
45344;SDS011;31078;48.304;11.896;2022-09-13T02:11:22;23.23;;;6.97;;
45344;SDS011;31078;48.304;11.896;2022-09-13T02:13:50;22.88;;;6.70;;
45344;SDS011;31078;48.304;11.896;2022-09-13T02:16:24;27.80;;;7.68;;
45344;SDS011;31078;48.304;11.896;2022-09-13T02:18:56;18.15;;;6.28;;
45344;SDS011;31078;48.304;11.896;2022-09-13T02:21:28;19.40;;;6.50;;
45344;SDS011;31078;48.304;11.896;2022-09-13T02:23:59;26.83;;;7.10;;
45344;SDS011;31078;48.304;11.896;2022-09-13T02:26:28;17.73;;;6.57;;
45344;SDS011;31078;48.304;11.896;2022-09-13T02:28:56;28.80;;;7.60;;
45344;SDS011;31078;48.304;11.896;2022-09-13T02:31:27;20.95;;;6.60;;
45344;SDS011;31078;48.304;11.896;2022-09-13T02:34:01;21.88;;;6.95;;
45344;SDS011;31078;48.304;11.896;2022-09-13T02:36:30;23.33;;;6.97;;
45344;SDS011;31078;48.304;11.896;2022-09-13T02:39:01;22.50;;;7.00;;
45344;SDS011;31078;48.304;11.896;2022-09-13T02:41:32;14.73;;;5.82;;
45344;SDS011;31078;48.304;11.896;2022-09-13T02:44:04;29.20;;;8.07;;
45344;SDS011;31078;48.304;11.896;2022-09-13T02:46:39;18.50;;;6.35;;
45344;SDS011;31078;48.304;11.896;2022-09-13T02:49:19;31.52;;;7.72;;
45344;SDS011;31078;48.304;11.896;2022-09-13T02:51:53;28.27;;;7.45;;
45344;SDS011;31078;48.304;11.896;2022-09-13T02:54:23;18.00;;;6.70;;
45344;SDS011;31078;48.304;11.896;2022-09-13T02:56:57;27.95;;;7.63;;
45344;SDS011;31078;48.304;11.896;2022-09-13T02:59:27;23.70;;;6.47;;
45344;SDS011;31078;48.304;11.896;2022-09-13T03:01:54;22.42;;;6.72;;
45344;SDS011;31078;48.304;11.896;2022-09-13T03:04:26;24.63;;;6.93;;
45344;SDS011;31078;48.304;11.896;2022-09-13T03:06:53;28.98;;;7.57;;
45344;SDS011;31078;48.304;11.896;2022-09-13T03:09:19;27.52;;;6.50;;
45344;SDS011;31078;48.304;11.896;2022-09-13T03:11:54;26.50;;;7.22;;
45344;SDS011;31078;48.304;11.896;2022-09-13T03:14:33;23.73;;;7.13;;
45344;SDS011;31078;48.304;11.896;2022-09-13T03:17:14;19.60;;;7.32;;
45344;SDS011;31078;48.304;11.896;2022-09-13T03:19:55;27.13;;;7.45;;
45344;SDS011;31078;48.304;11.896;2022-09-13T03:22:40;25.70;;;7.03;;
45344;SDS011;31078;48.304;11.896;2022-09-13T03:25:18;34.67;;;8.38;;
45344;SDS011;31078;48.304;11.896;2022-09-13T03:27:58;31.15;;;8.73;;
45344;SDS011;31078;48.304;11.896;2022-09-13T03:30:33;25.33;;;7.15;;
45344;SDS011;31078;48.304;11.896;2022-09-13T03:33:05;26.90;;;7.18;;
45344;SDS011;31078;48.304;11.896;2022-09-13T03:35:40;21.05;;;6.85;;
45344;SDS011;31078;48.304;11.896;2022-09-13T03:38:10;24.17;;;7.53;;
45344;SDS011;31078;48.304;11.896;2022-09-13T03:40:41;22.73;;;6.68;;
45344;SDS011;31078;48.304;11.896;2022-09-13T03:43:14;19.95;;;6.65;;
45344;SDS011;31078;48.304;11.896;2022-09-13T03:45:45;19.10;;;6.85;;
45344;SDS011;31078;48.304;11.896;2022-09-13T03:48:15;17.85;;;6.93;;
45344;SDS011;31078;48.304;11.896;2022-09-13T03:50:43;18.13;;;6.72;;
45344;SDS011;31078;48.304;11.896;2022-09-13T03:53:12;15.82;;;6.20;;
45344;SDS011;31078;48.304;11.896;2022-09-13T03:55:51;22.05;;;7.03;;
45344;SDS011;31078;48.304;11.896;2022-09-13T03:58:19;15.68;;;6.13;;
45344;SDS011;31078;48.304;11.896;2022-09-13T04:00:46;23.27;;;7.18;;
45344;SDS011;31078;48.304;11.896;2022-09-13T04:03:13;18.42;;;7.07;;
45344;SDS011;31078;48.304;11.896;2022-09-13T04:05:40;19.25;;;7.03;;
45344;SDS011;31078;48.304;11.896;2022-09-13T04:08:08;21.63;;;6.50;;
45344;SDS011;31078;48.304;11.896;2022-09-13T04:10:35;17.50;;;6.22;;
45344;SDS011;31078;48.304;11.896;2022-09-13T04:13:01;28.80;;;7.22;;
45344;SDS011;31078;48.304;11.896;2022-09-13T04:15:29;21.60;;;6.75;;
45344;SDS011;31078;48.304;11.896;2022-09-13T04:17:56;23.02;;;6.65;;
45344;SDS011;31078;48.304;11.896;2022-09-13T04:20:22;18.90;;;6.50;;
45344;SDS011;31078;48.304;11.896;2022-09-13T04:22:50;18.73;;;6.68;;
45344;SDS011;31078;48.304;11.896;2022-09-13T04:25:18;25.80;;;7.15;;
45344;SDS011;31078;48.304;11.896;2022-09-13T04:27:46;25.08;;;7.05;;
45344;SDS011;31078;48.304;11.896;2022-09-13T04:30:12;14.13;;;5.57;;
45344;SDS011;31078;48.304;11.896;2022-09-13T04:32:40;21.42;;;6.55;;
45344;SDS011;31078;48.304;11.896;2022-09-13T04:35:08;21.00;;;6.45;;
45344;SDS011;31078;48.304;11.896;2022-09-13T04:37:35;22.55;;;6.43;;
45344;SDS011;31078;48.304;11.896;2022-09-13T04:40:02;21.35;;;6.93;;
45344;SDS011;31078;48.304;11.896;2022-09-13T04:42:30;22.75;;;6.20;;
45344;SDS011;31078;48.304;11.896;2022-09-13T04:44:56;14.27;;;5.35;;
45344;SDS011;31078;48.304;11.896;2022-09-13T04:47:23;15.60;;;6.38;;
45344;SDS011;31078;48.304;11.896;2022-09-13T04:49:50;21.45;;;6.18;;
45344;SDS011;31078;48.304;11.896;2022-09-13T04:52:16;19.48;;;6.43;;
45344;SDS011;31078;48.304;11.896;2022-09-13T04:54:43;18.10;;;6.25;;
45344;SDS011;31078;48.304;11.896;2022-09-13T04:57:09;23.60;;;6.50;;
45344;SDS011;31078;48.304;11.896;2022-09-13T04:59:37;20.67;;;6.55;;
45344;SDS011;31078;48.304;11.896;2022-09-13T05:02:04;18.08;;;6.18;;
45344;SDS011;31078;48.304;11.896;2022-09-13T05:04:31;21.90;;;6.43;;
45344;SDS011;31078;48.304;11.896;2022-09-13T05:06:57;22.98;;;6.43;;
45344;SDS011;31078;48.304;11.896;2022-09-13T05:09:24;19.48;;;7.03;;
45344;SDS011;31078;48.304;11.896;2022-09-13T05:11:51;26.08;;;6.80;;
45344;SDS011;31078;48.304;11.896;2022-09-13T05:14:17;19.48;;;7.10;;
45344;SDS011;31078;48.304;11.896;2022-09-13T05:16:45;26.63;;;7.03;;
45344;SDS011;31078;48.304;11.896;2022-09-13T05:19:12;24.98;;;7.10;;
45344;SDS011;31078;48.304;11.896;2022-09-13T05:21:38;25.10;;;6.80;;
45344;SDS011;31078;48.304;11.896;2022-09-13T05:24:05;27.10;;;11.77;;
45344;SDS011;31078;48.304;11.896;2022-09-13T05:26:32;22.38;;;6.90;;
45344;SDS011;31078;48.304;11.896;2022-09-13T05:28:58;20.98;;;7.03;;
45344;SDS011;31078;48.304;11.896;2022-09-13T05:31:26;21.15;;;6.55;;
45344;SDS011;31078;48.304;11.896;2022-09-13T05:33:56;23.50;;;6.90;;
45344;SDS011;31078;48.304;11.896;2022-09-13T05:36:24;16.15;;;5.88;;
45344;SDS011;31078;48.304;11.896;2022-09-13T05:38:51;18.98;;;6.22;;
45344;SDS011;31078;48.304;11.896;2022-09-13T05:41:18;18.73;;;6.10;;
45344;SDS011;31078;48.304;11.896;2022-09-13T05:43:45;21.10;;;6.45;;
45344;SDS011;31078;48.304;11.896;2022-09-13T05:46:12;18.23;;;5.93;;
45344;SDS011;31078;48.304;11.896;2022-09-13T05:48:40;15.57;;;5.63;;
45344;SDS011;31078;48.304;11.896;2022-09-13T05:51:09;18.95;;;5.40;;
45344;SDS011;31078;48.304;11.896;2022-09-13T05:53:37;20.65;;;5.57;;
45344;SDS011;31078;48.304;11.896;2022-09-13T05:56:05;12.45;;;4.40;;
45344;SDS011;31078;48.304;11.896;2022-09-13T05:58:32;22.33;;;5.75;;
45344;SDS011;31078;48.304;11.896;2022-09-13T06:01:00;24.02;;;5.55;;
45344;SDS011;31078;48.304;11.896;2022-09-13T06:03:26;21.63;;;5.70;;
45344;SDS011;31078;48.304;11.896;2022-09-13T06:05:56;18.95;;;5.43;;
45344;SDS011;31078;48.304;11.896;2022-09-13T06:08:25;25.40;;;5.72;;
45344;SDS011;31078;48.304;11.896;2022-09-13T06:10:53;22.15;;;5.13;;
45344;SDS011;31078;48.304;11.896;2022-09-13T06:13:21;26.17;;;5.30;;
45344;SDS011;31078;48.304;11.896;2022-09-13T06:15:48;21.17;;;4.82;;
45344;SDS011;31078;48.304;11.896;2022-09-13T06:18:15;21.48;;;4.82;;
45344;SDS011;31078;48.304;11.896;2022-09-13T06:20:41;17.52;;;4.35;;
45344;SDS011;31078;48.304;11.896;2022-09-13T06:23:08;19.33;;;4.85;;
45344;SDS011;31078;48.304;11.896;2022-09-13T06:25:36;16.55;;;4.45;;
45344;SDS011;31078;48.304;11.896;2022-09-13T06:28:02;13.38;;;3.85;;
45344;SDS011;31078;48.304;11.896;2022-09-13T06:30:29;16.15;;;4.18;;
45344;SDS011;31078;48.304;11.896;2022-09-13T06:32:56;22.13;;;4.70;;
45344;SDS011;31078;48.304;11.896;2022-09-13T06:35:22;73.15;;;10.50;;
45344;SDS011;31078;48.304;11.896;2022-09-13T06:37:49;24.13;;;5.15;;
45344;SDS011;31078;48.304;11.896;2022-09-13T06:40:16;11.40;;;3.33;;
45344;SDS011;31078;48.304;11.896;2022-09-13T06:42:43;16.42;;;3.88;;
45344;SDS011;31078;48.304;11.896;2022-09-13T06:45:10;13.30;;;3.38;;
45344;SDS011;31078;48.304;11.896;2022-09-13T06:47:36;18.40;;;4.05;;
45344;SDS011;31078;48.304;11.896;2022-09-13T06:50:03;17.02;;;3.97;;
45344;SDS011;31078;48.304;11.896;2022-09-13T06:52:31;17.08;;;3.85;;
45344;SDS011;31078;48.304;11.896;2022-09-13T06:54:57;19.05;;;4.22;;
45344;SDS011;31078;48.304;11.896;2022-09-13T06:57:24;15.35;;;3.60;;
45344;SDS011;31078;48.304;11.896;2022-09-13T06:59:52;11.13;;;3.45;;
45344;SDS011;31078;48.304;11.896;2022-09-13T07:02:18;12.70;;;3.45;;
45344;SDS011;31078;48.304;11.896;2022-09-13T07:04:45;14.45;;;2.95;;
45344;SDS011;31078;48.304;11.896;2022-09-13T07:07:11;12.18;;;2.80;;
45344;SDS011;31078;48.304;11.896;2022-09-13T07:09:37;13.05;;;6.28;;
45344;SDS011;31078;48.304;11.896;2022-09-13T07:12:07;12.48;;;3.53;;
45344;SDS011;31078;48.304;11.896;2022-09-13T07:14:33;9.00;;;2.60;;
45344;SDS011;31078;48.304;11.896;2022-09-13T07:17:01;14.55;;;3.10;;
45344;SDS011;31078;48.304;11.896;2022-09-13T07:19:28;13.27;;;2.85;;
45344;SDS011;31078;48.304;11.896;2022-09-13T07:21:55;22.77;;;4.13;;
45344;SDS011;31078;48.304;11.896;2022-09-13T07:24:22;11.85;;;2.75;;
45344;SDS011;31078;48.304;11.896;2022-09-13T07:26:49;17.65;;;3.22;;
45344;SDS011;31078;48.304;11.896;2022-09-13T07:29:16;46.70;;;6.80;;
45344;SDS011;31078;48.304;11.896;2022-09-13T07:31:47;14.38;;;2.72;;
45344;SDS011;31078;48.304;11.896;2022-09-13T07:34:17;10.23;;;2.30;;
45344;SDS011;31078;48.304;11.896;2022-09-13T07:36:44;13.05;;;2.58;;
45344;SDS011;31078;48.304;11.896;2022-09-13T07:39:12;13.75;;;2.55;;
45344;SDS011;31078;48.304;11.896;2022-09-13T07:41:39;11.80;;;2.58;;
45344;SDS011;31078;48.304;11.896;2022-09-13T07:44:06;17.33;;;3.00;;
45344;SDS011;31078;48.304;11.896;2022-09-13T07:46:35;8.55;;;2.15;;
45344;SDS011;31078;48.304;11.896;2022-09-13T07:49:04;15.85;;;3.05;;
45344;SDS011;31078;48.304;11.896;2022-09-13T07:51:33;11.18;;;2.35;;
45344;SDS011;31078;48.304;11.896;2022-09-13T07:54:04;13.77;;;2.97;;
45344;SDS011;31078;48.304;11.896;2022-09-13T07:56:32;12.02;;;2.35;;
45344;SDS011;31078;48.304;11.896;2022-09-13T07:59:00;17.00;;;3.33;;
45344;SDS011;31078;48.304;11.896;2022-09-13T08:01:29;9.90;;;2.60;;
45344;SDS011;31078;48.304;11.896;2022-09-13T08:04:00;39.35;;;6.65;;
45344;SDS011;31078;48.304;11.896;2022-09-13T08:06:29;17.52;;;2.65;;
45344;SDS011;31078;48.304;11.896;2022-09-13T08:08:58;15.73;;;3.08;;
45344;SDS011;31078;48.304;11.896;2022-09-13T08:11:25;11.52;;;2.50;;
45344;SDS011;31078;48.304;11.896;2022-09-13T08:13:54;17.15;;;3.70;;
45344;SDS011;31078;48.304;11.896;2022-09-13T08:16:21;10.40;;;2.70;;
45344;SDS011;31078;48.304;11.896;2022-09-13T08:18:49;14.70;;;3.17;;
45344;SDS011;31078;48.304;11.896;2022-09-13T08:21:18;11.95;;;2.65;;
45344;SDS011;31078;48.304;11.896;2022-09-13T08:23:45;13.80;;;2.95;;
45344;SDS011;31078;48.304;11.896;2022-09-13T08:26:14;10.70;;;2.40;;
45344;SDS011;31078;48.304;11.896;2022-09-13T08:28:42;8.70;;;1.98;;
45344;SDS011;31078;48.304;11.896;2022-09-13T08:31:09;16.90;;;3.35;;
45344;SDS011;31078;48.304;11.896;2022-09-13T08:33:37;13.50;;;3.00;;
45344;SDS011;31078;48.304;11.896;2022-09-13T08:36:04;13.98;;;3.03;;
45344;SDS011;31078;48.304;11.896;2022-09-13T08:38:31;10.98;;;2.70;;
45344;SDS011;31078;48.304;11.896;2022-09-13T08:40:58;9.60;;;2.50;;
45344;SDS011;31078;48.304;11.896;2022-09-13T08:43:36;20.45;;;3.85;;
45344;SDS011;31078;48.304;11.896;2022-09-13T08:46:09;17.42;;;3.75;;
45344;SDS011;31078;48.304;11.896;2022-09-13T08:48:45;14.02;;;3.10;;
45344;SDS011;31078;48.304;11.896;2022-09-13T08:51:20;9.88;;;2.40;;
45344;SDS011;31078;48.304;11.896;2022-09-13T08:53:53;11.32;;;2.75;;
45344;SDS011;31078;48.304;11.896;2022-09-13T08:56:21;9.75;;;2.42;;
45344;SDS011;31078;48.304;11.896;2022-09-13T08:58:57;14.45;;;2.85;;
45344;SDS011;31078;48.304;11.896;2022-09-13T09:01:37;9.90;;;2.47;;
45344;SDS011;31078;48.304;11.896;2022-09-13T09:04:19;17.55;;;2.83;;
45344;SDS011;31078;48.304;11.896;2022-09-13T09:07:01;20.83;;;3.45;;
45344;SDS011;31078;48.304;11.896;2022-09-13T09:09:30;14.75;;;2.88;;
45344;SDS011;31078;48.304;11.896;2022-09-13T09:12:03;38.30;;;5.45;;
45344;SDS011;31078;48.304;11.896;2022-09-13T09:14:41;12.95;;;2.60;;
45344;SDS011;31078;48.304;11.896;2022-09-13T09:17:12;13.25;;;2.83;;
45344;SDS011;31078;48.304;11.896;2022-09-13T09:19:42;12.13;;;2.40;;
45344;SDS011;31078;48.304;11.896;2022-09-13T09:22:12;17.75;;;3.03;;
45344;SDS011;31078;48.304;11.896;2022-09-13T09:24:43;9.95;;;2.30;;
45344;SDS011;31078;48.304;11.896;2022-09-13T09:27:13;23.20;;;3.97;;
45344;SDS011;31078;48.304;11.896;2022-09-13T09:29:42;12.68;;;2.53;;
45344;SDS011;31078;48.304;11.896;2022-09-13T09:32:11;14.25;;;2.63;;
45344;SDS011;31078;48.304;11.896;2022-09-13T09:34:48;24.67;;;3.80;;
45344;SDS011;31078;48.304;11.896;2022-09-13T09:37:27;22.30;;;3.63;;
45344;SDS011;31078;48.304;11.896;2022-09-13T09:39:57;18.95;;;3.33;;
45344;SDS011;31078;48.304;11.896;2022-09-13T09:42:28;12.77;;;2.70;;
45344;SDS011;31078;48.304;11.896;2022-09-13T09:45:02;16.23;;;2.77;;
45344;SDS011;31078;48.304;11.896;2022-09-13T09:47:34;9.55;;;2.17;;
45344;SDS011;31078;48.304;11.896;2022-09-13T09:50:09;15.05;;;2.88;;
45344;SDS011;31078;48.304;11.896;2022-09-13T09:52:40;21.08;;;3.50;;
45344;SDS011;31078;48.304;11.896;2022-09-13T09:55:11;14.32;;;3.08;;
45344;SDS011;31078;48.304;11.896;2022-09-13T09:57:48;15.57;;;2.90;;
45344;SDS011;31078;48.304;11.896;2022-09-13T10:00:18;20.73;;;3.88;;
45344;SDS011;31078;48.304;11.896;2022-09-13T10:02:47;23.55;;;3.60;;
45344;SDS011;31078;48.304;11.896;2022-09-13T10:05:17;15.82;;;2.80;;
45344;SDS011;31078;48.304;11.896;2022-09-13T10:07:50;14.05;;;2.65;;
45344;SDS011;31078;48.304;11.896;2022-09-13T10:10:20;18.52;;;3.15;;
45344;SDS011;31078;48.304;11.896;2022-09-13T10:12:51;15.35;;;2.75;;
45344;SDS011;31078;48.304;11.896;2022-09-13T10:15:23;17.98;;;3.10;;
45344;SDS011;31078;48.304;11.896;2022-09-13T10:17:59;22.50;;;3.33;;
45344;SDS011;31078;48.304;11.896;2022-09-13T10:20:28;19.85;;;3.05;;
45344;SDS011;31078;48.304;11.896;2022-09-13T10:25:56;16.65;;;2.65;;
45344;SDS011;31078;48.304;11.896;2022-09-13T10:28:27;12.77;;;2.70;;
45344;SDS011;31078;48.304;11.896;2022-09-13T10:30:59;19.75;;;3.00;;
45344;SDS011;31078;48.304;11.896;2022-09-13T10:33:29;49.45;;;6.88;;
45344;SDS011;31078;48.304;11.896;2022-09-13T10:35:58;15.50;;;2.60;;
45344;SDS011;31078;48.304;11.896;2022-09-13T10:38:29;10.98;;;2.55;;
45344;SDS011;31078;48.304;11.896;2022-09-13T10:40:58;30.98;;;4.45;;
45344;SDS011;31078;48.304;11.896;2022-09-13T10:43:26;14.90;;;2.95;;
45344;SDS011;31078;48.304;11.896;2022-09-13T10:45:55;22.88;;;3.05;;
45344;SDS011;31078;48.304;11.896;2022-09-13T10:48:23;15.18;;;2.38;;
45344;SDS011;31078;48.304;11.896;2022-09-13T10:50:59;34.47;;;4.90;;
45344;SDS011;31078;48.304;11.896;2022-09-13T10:53:30;14.30;;;2.70;;
45344;SDS011;31078;48.304;11.896;2022-09-13T10:56:00;10.63;;;2.25;;
45344;SDS011;31078;48.304;11.896;2022-09-13T10:58:27;17.92;;;2.85;;
45344;SDS011;31078;48.304;11.896;2022-09-13T11:07:02;18.58;;;3.03;;
45344;SDS011;31078;48.304;11.896;2022-09-13T11:09:57;15.98;;;2.75;;
45344;SDS011;31078;48.304;11.896;2022-09-13T11:12:29;14.98;;;2.67;;
45344;SDS011;31078;48.304;11.896;2022-09-13T11:15:05;19.30;;;3.03;;
45344;SDS011;31078;48.304;11.896;2022-09-13T11:20:37;28.90;;;4.00;;
45344;SDS011;31078;48.304;11.896;2022-09-13T11:26:26;13.55;;;2.45;;
45344;SDS011;31078;48.304;11.896;2022-09-13T11:29:04;11.10;;;2.22;;
45344;SDS011;31078;48.304;11.896;2022-09-13T11:31:41;14.32;;;2.40;;
45344;SDS011;31078;48.304;11.896;2022-09-13T11:34:18;13.60;;;2.40;;
45344;SDS011;31078;48.304;11.896;2022-09-13T11:37:05;17.10;;;2.63;;
45344;SDS011;31078;48.304;11.896;2022-09-13T11:39:42;17.88;;;2.78;;
45344;SDS011;31078;48.304;11.896;2022-09-13T11:42:20;14.05;;;2.30;;
45344;SDS011;31078;48.304;11.896;2022-09-13T11:45:07;15.05;;;2.45;;
45344;SDS011;31078;48.304;11.896;2022-09-13T11:47:47;14.13;;;2.42;;
45344;SDS011;31078;48.304;11.896;2022-09-13T11:50:33;17.30;;;2.65;;
45344;SDS011;31078;48.304;11.896;2022-09-13T11:53:09;13.70;;;2.38;;
45344;SDS011;31078;48.304;11.896;2022-09-13T11:55:50;17.40;;;2.95;;
45344;SDS011;31078;48.304;11.896;2022-09-13T11:58:24;11.80;;;2.40;;
45344;SDS011;31078;48.304;11.896;2022-09-13T12:00:56;15.53;;;3.00;;
45344;SDS011;31078;48.304;11.896;2022-09-13T12:03:26;10.95;;;2.17;;
45344;SDS011;31078;48.304;11.896;2022-09-13T12:06:00;15.85;;;2.60;;
45344;SDS011;31078;48.304;11.896;2022-09-13T12:08:31;12.68;;;2.38;;
45344;SDS011;31078;48.304;11.896;2022-09-13T12:11:01;13.88;;;2.70;;
45344;SDS011;31078;48.304;11.896;2022-09-13T12:13:31;16.85;;;2.75;;
45344;SDS011;31078;48.304;11.896;2022-09-13T12:16:06;13.93;;;2.33;;
45344;SDS011;31078;48.304;11.896;2022-09-13T12:18:36;10.80;;;2.08;;
45344;SDS011;31078;48.304;11.896;2022-09-13T12:21:09;11.52;;;2.28;;
45344;SDS011;31078;48.304;11.896;2022-09-13T12:23:41;11.52;;;2.38;;
45344;SDS011;31078;48.304;11.896;2022-09-13T12:26:12;17.13;;;2.65;;
45344;SDS011;31078;48.304;11.896;2022-09-13T12:28:45;13.20;;;2.33;;
45344;SDS011;31078;48.304;11.896;2022-09-13T12:31:17;15.02;;;2.72;;
45344;SDS011;31078;48.304;11.896;2022-09-13T12:33:47;15.25;;;2.80;;
45344;SDS011;31078;48.304;11.896;2022-09-13T12:36:18;13.65;;;2.60;;
45344;SDS011;31078;48.304;11.896;2022-09-13T12:39:06;17.08;;;3.28;;
45344;SDS011;31078;48.304;11.896;2022-09-13T12:41:49;14.25;;;2.65;;
45344;SDS011;31078;48.304;11.896;2022-09-13T12:44:31;11.80;;;2.15;;
45344;SDS011;31078;48.304;11.896;2022-09-13T12:47:27;20.02;;;3.35;;
45344;SDS011;31078;48.304;11.896;2022-09-13T12:50:17;10.50;;;2.15;;
45344;SDS011;31078;48.304;11.896;2022-09-13T12:52:52;15.02;;;2.85;;
45344;SDS011;31078;48.304;11.896;2022-09-13T12:58:33;13.15;;;2.35;;
45344;SDS011;31078;48.304;11.896;2022-09-13T13:01:11;11.88;;;2.15;;
45344;SDS011;31078;48.304;11.896;2022-09-13T13:03:43;15.25;;;2.58;;
45344;SDS011;31078;48.304;11.896;2022-09-13T13:06:18;40.97;;;5.95;;
45344;SDS011;31078;48.304;11.896;2022-09-13T13:08:52;9.80;;;2.20;;
45344;SDS011;31078;48.304;11.896;2022-09-13T13:11:22;13.93;;;2.67;;
45344;SDS011;31078;48.304;11.896;2022-09-13T13:13:55;13.40;;;2.47;;
45344;SDS011;31078;48.304;11.896;2022-09-13T13:16:26;11.10;;;2.35;;
45344;SDS011;31078;48.304;11.896;2022-09-13T13:18:54;16.20;;;2.60;;
45344;SDS011;31078;48.304;11.896;2022-09-13T13:21:32;12.50;;;2.20;;
45344;SDS011;31078;48.304;11.896;2022-09-13T13:30:49;12.93;;;2.70;;
45344;SDS011;31078;48.304;11.896;2022-09-13T13:33:19;16.83;;;2.70;;
45344;SDS011;31078;48.304;11.896;2022-09-13T13:35:47;11.65;;;2.22;;
45344;SDS011;31078;48.304;11.896;2022-09-13T13:38:15;20.45;;;3.67;;
45344;SDS011;31078;48.304;11.896;2022-09-13T13:41:04;10.77;;;2.20;;
45344;SDS011;31078;48.304;11.896;2022-09-13T13:43:33;9.30;;;1.90;;
45344;SDS011;31078;48.304;11.896;2022-09-13T13:48:56;12.65;;;2.20;;
45344;SDS011;31078;48.304;11.896;2022-09-13T13:57:56;17.95;;;3.15;;
45344;SDS011;31078;48.304;11.896;2022-09-13T14:00:26;13.88;;;2.38;;
45344;SDS011;31078;48.304;11.896;2022-09-13T14:02:56;13.13;;;2.40;;
45344;SDS011;31078;48.304;11.896;2022-09-13T14:05:36;18.25;;;2.90;;
45344;SDS011;31078;48.304;11.896;2022-09-13T14:08:27;15.80;;;2.63;;
45344;SDS011;31078;48.304;11.896;2022-09-13T14:11:02;11.05;;;2.20;;
45344;SDS011;31078;48.304;11.896;2022-09-13T14:13:41;9.00;;;1.88;;
45344;SDS011;31078;48.304;11.896;2022-09-13T14:16:16;11.75;;;2.25;;
45344;SDS011;31078;48.304;11.896;2022-09-13T14:24:49;13.48;;;2.67;;
45344;SDS011;31078;48.304;11.896;2022-09-13T14:27:18;15.98;;;2.80;;
45344;SDS011;31078;48.304;11.896;2022-09-13T14:29:48;12.38;;;2.10;;
45344;SDS011;31078;48.304;11.896;2022-09-13T14:32:17;10.77;;;1.90;;
45344;SDS011;31078;48.304;11.896;2022-09-13T14:34:51;12.75;;;2.35;;
45344;SDS011;31078;48.304;11.896;2022-09-13T14:37:22;10.45;;;2.17;;
45344;SDS011;31078;48.304;11.896;2022-09-13T14:42:22;19.92;;;3.08;;
45344;SDS011;31078;48.304;11.896;2022-09-13T14:44:49;20.65;;;3.25;;
45344;SDS011;31078;48.304;11.896;2022-09-13T14:47:17;16.60;;;3.10;;
45344;SDS011;31078;48.304;11.896;2022-09-13T14:49:51;11.73;;;2.10;;
45344;SDS011;31078;48.304;11.896;2022-09-13T14:52:25;23.48;;;3.60;;
45344;SDS011;31078;48.304;11.896;2022-09-13T14:54:58;14.90;;;2.50;;
45344;SDS011;31078;48.304;11.896;2022-09-13T14:59:58;11.25;;;2.25;;
45344;SDS011;31078;48.304;11.896;2022-09-13T15:02:28;10.88;;;2.00;;
45344;SDS011;31078;48.304;11.896;2022-09-13T15:04:57;11.30;;;2.08;;
45344;SDS011;31078;48.304;11.896;2022-09-13T15:07:27;13.05;;;2.30;;
45344;SDS011;31078;48.304;11.896;2022-09-13T15:09:55;17.80;;;3.33;;
45344;SDS011;31078;48.304;11.896;2022-09-13T15:12:30;13.38;;;3.15;;
45344;SDS011;31078;48.304;11.896;2022-09-13T15:15:18;11.23;;;2.45;;
45344;SDS011;31078;48.304;11.896;2022-09-13T15:17:51;15.65;;;2.75;;
45344;SDS011;31078;48.304;11.896;2022-09-13T15:20:19;12.93;;;2.47;;
45344;SDS011;31078;48.304;11.896;2022-09-13T15:22:46;13.35;;;2.50;;
45344;SDS011;31078;48.304;11.896;2022-09-13T15:25:23;12.65;;;3.08;;
45344;SDS011;31078;48.304;11.896;2022-09-13T15:27:51;10.90;;;2.30;;
45344;SDS011;31078;48.304;11.896;2022-09-13T15:30:20;11.93;;;2.40;;
45344;SDS011;31078;48.304;11.896;2022-09-13T15:32:49;14.00;;;2.65;;